createdAt,value
2023-05-05T00:00:02.290Z,5.03
2023-05-05T00:02:29.193Z,4.97
2023-05-05T00:04:56.229Z,5.10
2023-05-05T00:07:23.054Z,5.07
2023-05-05T00:09:49.948Z,4.00
2023-05-05T00:12:16.945Z,4.07
2023-05-05T00:14:43.794Z,4.12
2023-05-05T00:17:10.808Z,5.53
2023-05-05T00:19:37.788Z,4.97
2023-05-05T00:22:04.670Z,3.72
2023-05-05T00:24:31.456Z,4.57
2023-05-05T00:26:58.297Z,3.58
2023-05-05T00:29:25.341Z,4.57
2023-05-05T00:31:53.022Z,4.12
2023-05-05T00:34:19.936Z,4.00
2023-05-05T00:36:46.867Z,5.10
2023-05-05T00:39:14.484Z,5.78
2023-05-05T00:41:41.625Z,5.25
2023-05-05T00:44:08.463Z,4.30
2023-05-05T00:46:36.139Z,5.22
2023-05-05T00:49:03.271Z,3.80
2023-05-05T00:51:30.302Z,4.12
2023-05-05T00:53:57.566Z,4.07
2023-05-05T00:56:27.513Z,4.10
2023-05-05T00:58:54.489Z,3.80
2023-05-05T01:01:21.358Z,4.00
2023-05-05T01:03:48.366Z,3.92
2023-05-05T01:06:39.731Z,4.43
2023-05-05T01:10:10.971Z,3.80
2023-05-05T01:13:05.781Z,4.50
2023-05-05T01:15:36.326Z,3.72
2023-05-05T01:18:21.455Z,3.80
2023-05-05T01:21:00.710Z,5.12
2023-05-05T01:23:59.216Z,3.97
2023-05-05T01:26:48.228Z,3.78
2023-05-05T01:29:40.740Z,4.80
2023-05-05T01:32:11.990Z,3.70
2023-05-05T01:35:15.525Z,4.00
2023-05-05T01:37:55.814Z,4.18
2023-05-05T01:40:26.999Z,3.92
2023-05-05T01:42:56.452Z,3.28
2023-05-05T01:45:28.911Z,4.07
2023-05-05T01:47:57.631Z,3.78
2023-05-05T01:50:26.128Z,3.87
2023-05-05T01:52:54.597Z,3.50
2023-05-05T01:55:25.673Z,4.90
2023-05-05T01:57:55.058Z,4.32
2023-05-05T02:00:23.094Z,3.70
2023-05-05T02:02:50.836Z,4.07
2023-05-05T02:05:22.075Z,5.20
2023-05-05T02:07:51.485Z,5.32
2023-05-05T02:10:18.650Z,5.55
2023-05-05T02:12:47.789Z,5.30
2023-05-05T02:15:15.756Z,6.07
2023-05-05T02:17:46.759Z,5.93
2023-05-05T02:20:16.319Z,4.70
2023-05-05T02:22:43.445Z,4.12
2023-05-05T02:25:10.601Z,5.20
2023-05-05T02:27:41.874Z,6.15
2023-05-05T02:30:11.346Z,4.80
2023-05-05T02:32:41.632Z,5.30
2023-05-05T02:35:15.846Z,6.05
2023-05-05T02:37:51.122Z,4.32
2023-05-05T02:40:24.715Z,5.03
2023-05-05T02:42:54.638Z,4.20
2023-05-05T02:45:24.232Z,4.18
2023-05-05T02:47:51.084Z,3.97
2023-05-05T02:50:18.263Z,4.35
2023-05-05T02:52:46.069Z,4.65
2023-05-05T02:55:13.675Z,5.20
2023-05-05T02:57:55.399Z,5.75
2023-05-05T03:00:22.241Z,5.65
2023-05-05T03:03:05.723Z,5.57
2023-05-05T03:05:42.824Z,5.55
2023-05-05T03:08:33.418Z,5.43
2023-05-05T03:11:16.948Z,6.12
2023-05-05T03:13:44.996Z,4.78
2023-05-05T03:16:13.379Z,5.97
2023-05-05T03:18:42.565Z,6.65
2023-05-05T03:21:09.755Z,5.30
2023-05-05T03:23:36.855Z,4.18
2023-05-05T03:26:03.842Z,6.10
2023-05-05T03:28:30.766Z,4.60
2023-05-05T03:30:57.751Z,4.87
2023-05-05T03:33:24.598Z,4.00
2023-05-05T03:35:51.487Z,4.30
2023-05-05T03:38:18.298Z,5.30
2023-05-05T03:40:45.179Z,4.35
2023-05-05T03:43:12.396Z,4.78
2023-05-05T03:45:39.324Z,4.47
2023-05-05T03:48:07.055Z,4.57
2023-05-05T03:50:34.045Z,4.40
2023-05-05T03:53:01.085Z,5.43
2023-05-05T03:55:28.079Z,5.22
2023-05-05T03:57:56.556Z,5.37
2023-05-05T04:00:23.602Z,4.62
2023-05-05T04:02:50.612Z,5.12
2023-05-05T04:05:18.449Z,5.75
2023-05-05T04:07:45.273Z,4.80
2023-05-05T04:10:12.459Z,4.85
2023-05-05T04:12:39.430Z,4.68
2023-05-05T04:15:07.090Z,3.95
2023-05-05T04:17:33.988Z,4.85
2023-05-05T04:20:00.953Z,6.80
2023-05-05T04:22:27.758Z,4.10
2023-05-05T04:24:54.748Z,4.32
2023-05-05T04:27:21.566Z,4.30
2023-05-05T04:29:48.469Z,4.53
2023-05-05T04:32:15.998Z,5.20
2023-05-05T04:34:44.096Z,4.57
2023-05-05T04:37:15.562Z,4.82
2023-05-05T04:39:47.073Z,6.35
2023-05-05T04:42:14.011Z,6.62
2023-05-05T04:44:41.021Z,6.00
2023-05-05T04:47:07.933Z,6.15
2023-05-05T04:49:34.894Z,5.37
2023-05-05T04:52:01.787Z,4.82
2023-05-05T04:54:28.685Z,5.20
2023-05-05T04:56:55.894Z,6.87
2023-05-05T04:59:22.740Z,7.25
2023-05-05T05:01:49.586Z,7.75
2023-05-05T05:04:18.810Z,7.45
2023-05-05T05:06:46.215Z,7.90
2023-05-05T05:09:13.302Z,8.73
2023-05-05T05:11:40.124Z,9.00
2023-05-05T05:14:07.064Z,15.30
2023-05-05T05:16:33.971Z,23.75
2023-05-05T05:19:01.752Z,10.38
2023-05-05T05:21:28.903Z,7.93
2023-05-05T05:23:55.791Z,7.32
2023-05-05T05:26:23.394Z,6.78
2023-05-05T05:28:50.220Z,6.25
2023-05-05T05:31:17.100Z,6.32
2023-05-05T05:33:44.065Z,6.60
2023-05-05T05:36:11.156Z,7.78
2023-05-05T05:38:37.942Z,6.72
2023-05-05T05:41:07.902Z,7.22
2023-05-05T05:43:37.084Z,8.05
2023-05-05T05:46:04.480Z,7.62
2023-05-05T05:48:32.335Z,6.95
2023-05-05T05:50:59.158Z,6.70
2023-05-05T05:53:26.070Z,6.28
2023-05-05T05:55:52.968Z,6.80
2023-05-05T05:58:20.102Z,5.97
2023-05-05T06:00:48.503Z,5.80
2023-05-05T06:03:16.180Z,5.40
2023-05-05T06:05:43.114Z,5.87
2023-05-05T06:08:11.087Z,6.10
2023-05-05T06:10:37.946Z,5.72
2023-05-05T06:13:04.796Z,6.53
2023-05-05T06:15:31.731Z,6.55
2023-05-05T06:17:58.545Z,5.85
2023-05-05T06:20:25.468Z,5.82
2023-05-05T06:22:52.333Z,5.93
2023-05-05T06:25:19.187Z,6.53
2023-05-05T06:27:47.274Z,5.65
2023-05-05T06:30:15.013Z,5.45
2023-05-05T06:32:42.079Z,6.60
2023-05-05T06:35:09.822Z,6.80
2023-05-05T06:37:36.736Z,6.10
2023-05-05T06:40:03.858Z,6.53
2023-05-05T06:42:33.062Z,6.50
2023-05-05T06:44:59.936Z,7.00
2023-05-05T06:47:26.813Z,6.28
2023-05-05T06:49:53.971Z,5.60
2023-05-05T06:52:20.882Z,6.22
2023-05-05T06:54:47.680Z,6.30
2023-05-05T06:57:14.763Z,6.82
2023-05-05T06:59:41.846Z,5.95
2023-05-05T07:02:08.671Z,5.15
2023-05-05T07:04:35.817Z,5.47
2023-05-05T07:07:02.720Z,5.78
2023-05-05T07:09:29.617Z,4.90
2023-05-05T07:11:56.500Z,5.35
2023-05-05T07:14:24.469Z,5.37
2023-05-05T07:16:51.643Z,5.87
2023-05-05T07:19:18.562Z,5.90
2023-05-05T07:21:45.433Z,6.18
2023-05-05T07:24:12.304Z,4.97
2023-05-05T07:26:39.168Z,5.70
2023-05-05T07:29:07.305Z,5.35
2023-05-05T07:31:34.332Z,5.70
2023-05-05T07:34:01.461Z,6.20
2023-05-05T07:36:28.587Z,5.55
2023-05-05T07:38:55.629Z,5.82
2023-05-05T07:41:22.541Z,5.30
2023-05-05T07:43:49.454Z,5.95
2023-05-05T07:46:17.695Z,5.20
2023-05-05T07:48:44.624Z,4.60
2023-05-05T07:51:11.470Z,5.15
2023-05-05T07:53:38.331Z,5.72
2023-05-05T07:56:05.253Z,5.78
2023-05-05T07:58:32.134Z,5.85
2023-05-05T08:00:59.622Z,5.50
2023-05-05T08:03:26.785Z,5.57
2023-05-05T08:05:55.666Z,4.72
2023-05-05T08:08:27.112Z,5.03
2023-05-05T08:10:54.814Z,4.53
2023-05-05T08:13:21.868Z,4.95
2023-05-05T08:15:48.776Z,5.10
2023-05-05T08:18:15.592Z,5.80
2023-05-05T08:20:42.592Z,4.15
2023-05-05T08:23:09.517Z,4.43
2023-05-05T08:25:36.519Z,4.35
2023-05-05T08:28:03.824Z,4.62
2023-05-05T08:30:30.912Z,4.03
2023-05-05T08:32:58.062Z,4.07
2023-05-05T08:35:24.962Z,3.65
2023-05-05T08:37:52.093Z,4.22
2023-05-05T08:40:21.371Z,4.12
2023-05-05T08:42:48.618Z,3.75
2023-05-05T08:45:16.202Z,4.00
2023-05-05T08:47:43.678Z,6.60
2023-05-05T08:50:11.709Z,3.97
2023-05-05T08:52:45.972Z,3.03
2023-05-05T08:55:26.779Z,2.87
2023-05-05T08:57:57.531Z,4.53
2023-05-05T09:00:27.312Z,4.30
2023-05-05T09:02:57.827Z,3.28
2023-05-05T09:05:25.883Z,3.85
2023-05-05T09:07:52.958Z,3.30
2023-05-05T09:10:19.951Z,3.72
2023-05-05T09:12:47.035Z,2.85
2023-05-05T09:15:15.391Z,2.60
2023-05-05T09:17:42.868Z,3.50
2023-05-05T09:20:11.993Z,3.65
2023-05-05T09:22:40.744Z,2.65
2023-05-05T09:25:10.404Z,3.08
2023-05-05T09:27:48.859Z,2.97
2023-05-05T09:30:18.118Z,3.15
2023-05-05T09:35:17.206Z,2.40
2023-05-05T09:37:44.737Z,2.97
2023-05-05T09:40:14.263Z,3.25
2023-05-05T09:42:41.760Z,4.05
2023-05-05T09:45:18.091Z,5.47
2023-05-05T09:47:49.456Z,5.10
2023-05-05T09:50:19.163Z,5.00
2023-05-05T09:53:00.883Z,4.07
2023-05-05T09:55:28.387Z,3.60
2023-05-05T09:57:56.453Z,3.75
2023-05-05T10:00:39.073Z,4.30
2023-05-05T10:03:06.053Z,4.35
2023-05-05T10:05:32.979Z,3.45
2023-05-05T10:08:13.461Z,4.03
2023-05-05T10:10:51.684Z,4.60
2023-05-05T10:13:21.203Z,3.95
2023-05-05T10:15:52.260Z,3.12
2023-05-05T10:18:27.856Z,3.30
2023-05-05T10:21:03.386Z,3.15
2023-05-05T10:23:46.132Z,3.28
2023-05-05T10:26:15.084Z,4.35
2023-05-05T10:28:55.278Z,3.65
2023-05-05T10:31:30.328Z,3.65
2023-05-05T10:34:10.822Z,3.40
2023-05-05T10:36:39.507Z,3.72
2023-05-05T10:39:11.000Z,2.65
2023-05-05T10:41:38.499Z,3.53
2023-05-05T10:44:07.003Z,3.10
2023-05-05T10:46:33.964Z,4.05
2023-05-05T10:49:33.716Z,3.87
2023-05-05T10:52:19.462Z,6.18
2023-05-05T10:54:55.904Z,4.87
2023-05-05T10:57:25.972Z,4.03
2023-05-05T10:59:52.888Z,4.35
2023-05-05T11:02:29.708Z,4.18
2023-05-05T11:05:08.471Z,4.60
2023-05-05T11:07:36.177Z,4.22
2023-05-05T11:10:07.858Z,3.83
2023-05-05T11:13:02.234Z,3.85
2023-05-05T11:15:31.469Z,5.28
2023-05-05T11:18:05.808Z,3.50
2023-05-05T11:20:37.323Z,3.83
2023-05-05T11:23:04.364Z,5.37
2023-05-05T11:25:41.273Z,3.83
2023-05-05T11:28:13.065Z,6.80
2023-05-05T11:30:55.135Z,3.72
2023-05-05T11:33:32.322Z,3.53
2023-05-05T11:36:05.764Z,3.78
2023-05-05T11:38:36.457Z,5.03
2023-05-05T11:41:12.055Z,4.43
2023-05-05T11:43:41.969Z,3.42
2023-05-05T11:46:17.114Z,3.55
2023-05-05T11:48:47.301Z,3.87
2023-05-05T11:51:18.706Z,5.15
2023-05-05T11:53:49.978Z,2.53
2023-05-05T11:56:19.453Z,2.60
2023-05-05T11:58:47.450Z,2.85
2023-05-05T12:01:14.932Z,2.62
2023-05-05T12:03:43.213Z,2.60
2023-05-05T12:06:10.490Z,2.62
2023-05-05T12:08:41.396Z,2.37
2023-05-05T12:11:11.444Z,2.25
2023-05-05T12:13:38.495Z,2.35
2023-05-05T12:16:09.833Z,2.45
2023-05-05T12:18:36.853Z,2.20
2023-05-05T12:21:15.840Z,2.62
2023-05-05T12:23:43.070Z,2.40
2023-05-05T12:26:30.243Z,2.40
2023-05-05T12:29:01.214Z,2.30
2023-05-05T12:31:38.984Z,3.17
2023-05-05T12:34:08.706Z,3.35
2023-05-05T12:36:39.983Z,2.85
2023-05-05T12:39:06.896Z,2.45
2023-05-05T12:41:34.075Z,2.53
2023-05-05T12:44:03.265Z,3.28
2023-05-05T12:46:31.302Z,2.53
2023-05-05T12:49:08.134Z,4.00
2023-05-05T12:51:36.411Z,3.00
2023-05-05T12:54:10.442Z,4.03
2023-05-05T12:56:44.831Z,3.53
2023-05-05T12:59:29.036Z,2.58
2023-05-05T13:01:57.720Z,3.00
2023-05-05T13:04:28.371Z,2.45
2023-05-05T13:07:14.641Z,2.87
2023-05-05T13:09:41.916Z,4.12
2023-05-05T13:12:11.729Z,2.87
2023-05-05T13:14:39.936Z,2.22
2023-05-05T13:17:06.978Z,2.62
2023-05-05T13:19:36.065Z,2.78
2023-05-05T13:22:03.408Z,3.30
2023-05-05T13:24:46.680Z,2.22
2023-05-05T13:27:17.422Z,2.33
2023-05-05T13:29:45.338Z,2.65
2023-05-05T13:32:12.226Z,5.10
2023-05-05T13:34:39.581Z,3.83
2023-05-05T13:37:06.727Z,4.10
2023-05-05T13:39:33.649Z,2.40
2023-05-05T13:42:00.684Z,2.62
2023-05-05T13:44:27.643Z,2.37
2023-05-05T13:46:54.757Z,3.37
2023-05-05T13:49:21.902Z,2.08
2023-05-05T13:51:48.824Z,1.90
2023-05-05T13:54:15.703Z,3.03
2023-05-05T13:56:42.744Z,4.03
2023-05-05T13:59:09.740Z,2.72
2023-05-05T14:01:36.696Z,3.47
2023-05-05T14:04:05.466Z,2.62
2023-05-05T14:08:59.897Z,2.00
2023-05-05T14:11:26.723Z,2.65
2023-05-05T14:13:53.613Z,2.20
2023-05-05T14:16:20.499Z,2.70
2023-05-05T14:18:47.360Z,2.17
2023-05-05T14:21:14.251Z,2.08
2023-05-05T14:23:41.258Z,2.17
2023-05-05T14:26:09.258Z,2.95
2023-05-05T14:28:36.402Z,3.05
2023-05-05T14:31:03.359Z,2.50
2023-05-05T14:33:30.282Z,2.47
2023-05-05T14:35:57.191Z,2.72
2023-05-05T14:38:24.059Z,2.22
2023-05-05T14:40:50.960Z,2.40
2023-05-05T14:43:17.791Z,2.17
2023-05-05T14:45:44.636Z,2.12
2023-05-05T14:48:11.568Z,2.28
2023-05-05T14:50:40.059Z,2.58
2023-05-05T14:53:06.857Z,2.33
2023-05-05T14:55:33.737Z,2.33
2023-05-05T14:58:00.570Z,2.00
2023-05-05T15:00:27.442Z,2.50
2023-05-05T15:02:54.304Z,2.10
2023-05-05T15:05:21.480Z,2.42
2023-05-05T15:07:48.418Z,2.60
2023-05-05T15:10:15.355Z,2.87
2023-05-05T15:12:43.048Z,2.67
2023-05-05T15:15:10.530Z,2.10
2023-05-05T15:17:39.067Z,2.80
2023-05-05T15:20:07.001Z,2.40
2023-05-05T15:22:34.075Z,2.45
2023-05-05T15:25:01.550Z,2.58
2023-05-05T15:27:28.666Z,2.70
2023-05-05T15:29:55.620Z,2.40
2023-05-05T15:32:22.822Z,2.47
2023-05-05T15:34:50.474Z,2.45
2023-05-05T15:37:17.583Z,2.62
2023-05-05T15:39:44.616Z,3.40
2023-05-05T15:42:11.540Z,2.70
2023-05-05T15:44:38.636Z,2.08
2023-05-05T15:47:06.763Z,2.62
2023-05-05T15:49:33.695Z,2.15
2023-05-05T15:52:00.913Z,2.58
2023-05-05T15:54:27.813Z,2.35
2023-05-05T15:56:55.181Z,2.10
2023-05-05T15:59:22.127Z,2.60
2023-05-05T16:01:49.292Z,2.70
2023-05-05T16:04:16.181Z,3.33
2023-05-05T16:06:43.165Z,2.67
2023-05-05T16:09:10.351Z,3.47
2023-05-05T16:11:39.849Z,3.30
2023-05-05T16:16:33.472Z,2.75
2023-05-05T16:19:00.332Z,2.45
2023-05-05T16:21:27.722Z,2.65
2023-05-05T16:23:54.594Z,2.37
2023-05-05T16:26:21.468Z,2.78
2023-05-05T16:28:48.778Z,3.03
2023-05-05T16:31:15.641Z,2.35
2023-05-05T16:33:44.143Z,2.90
2023-05-05T16:36:14.669Z,2.97
2023-05-05T16:38:41.700Z,3.17
2023-05-05T16:41:08.678Z,2.83
2023-05-05T16:43:37.392Z,3.10
2023-05-05T16:46:04.906Z,2.70
2023-05-05T16:48:31.973Z,2.90
2023-05-05T16:50:59.032Z,2.70
2023-05-05T16:53:26.175Z,3.20
2023-05-05T16:55:53.761Z,2.90
2023-05-05T16:58:21.455Z,2.85
2023-05-05T17:00:49.387Z,2.42
2023-05-05T17:03:17.298Z,2.85
2023-05-05T17:05:45.285Z,2.83
2023-05-05T17:08:14.481Z,3.33
2023-05-05T17:10:42.406Z,2.72
2023-05-05T17:13:13.711Z,2.87
2023-05-05T17:15:41.607Z,2.90
2023-05-05T17:18:09.019Z,3.28
2023-05-05T17:20:36.552Z,2.78
2023-05-05T17:23:03.600Z,2.78
2023-05-05T17:25:30.937Z,3.62
2023-05-05T17:27:57.902Z,3.00
2023-05-05T17:30:24.768Z,4.12
2023-05-05T17:32:51.632Z,3.30
2023-05-05T17:35:18.733Z,4.00
2023-05-05T17:37:45.788Z,3.17
2023-05-05T17:40:12.773Z,3.83
2023-05-05T17:42:39.720Z,4.53
2023-05-05T17:45:07.933Z,3.35
2023-05-05T17:47:35.263Z,4.05
2023-05-05T17:50:02.328Z,4.05
2023-05-05T17:52:29.369Z,3.30
2023-05-05T17:54:56.170Z,3.72
2023-05-05T17:57:23.161Z,4.53
2023-05-05T17:59:50.615Z,3.87
2023-05-05T18:02:18.207Z,4.60
2023-05-05T18:04:45.728Z,3.78
2023-05-05T18:07:14.833Z,3.83
2023-05-05T18:09:42.311Z,4.22
2023-05-05T18:12:09.239Z,4.12
2023-05-05T18:14:36.178Z,4.15
2023-05-05T18:17:03.349Z,4.60
2023-05-05T18:19:30.351Z,4.80
2023-05-05T18:21:59.890Z,4.03
2023-05-05T18:26:54.476Z,3.60
2023-05-05T18:29:22.285Z,4.10
2023-05-05T18:31:53.148Z,3.95
2023-05-05T18:34:20.885Z,4.10
2023-05-05T18:36:48.376Z,4.12
2023-05-05T18:39:15.295Z,4.55
2023-05-05T18:41:42.209Z,4.10
2023-05-05T18:44:09.159Z,4.30
2023-05-05T18:46:36.087Z,3.67
2023-05-05T18:49:03.903Z,4.25
2023-05-05T18:51:30.976Z,4.07
2023-05-05T18:53:58.046Z,4.43
2023-05-05T18:56:24.883Z,3.78
2023-05-05T18:58:51.760Z,3.83
2023-05-05T19:01:18.731Z,4.40
2023-05-05T19:03:48.912Z,3.72
2023-05-05T19:06:16.512Z,5.30
2023-05-05T19:08:44.383Z,5.00
2023-05-05T19:11:11.503Z,6.35
2023-05-05T19:13:39.748Z,6.55
2023-05-05T19:16:07.345Z,7.75
2023-05-05T19:18:34.468Z,5.85
2023-05-05T19:21:01.706Z,7.60
2023-05-05T19:23:28.552Z,8.45
2023-05-05T19:25:55.565Z,8.27
2023-05-05T19:28:22.434Z,12.13
2023-05-05T19:30:49.408Z,10.18
2023-05-05T19:33:16.619Z,9.88
2023-05-05T19:35:44.155Z,12.35
2023-05-05T19:38:11.145Z,11.52
2023-05-05T19:40:41.301Z,10.93
2023-05-05T19:43:08.305Z,11.50
2023-05-05T19:45:35.650Z,10.10
2023-05-05T19:48:03.011Z,10.85
2023-05-05T19:50:30.869Z,13.52
2023-05-05T19:52:58.232Z,12.23
2023-05-05T19:55:25.876Z,11.10
2023-05-05T19:57:52.773Z,10.02
2023-05-05T20:00:19.957Z,10.63
2023-05-05T20:02:48.757Z,10.23
2023-05-05T20:05:17.811Z,9.63
2023-05-05T20:07:47.011Z,12.68
2023-05-05T20:10:14.005Z,12.37
2023-05-05T20:12:49.205Z,11.07
2023-05-05T20:15:19.988Z,10.50
2023-05-05T20:17:48.033Z,11.07
2023-05-05T20:20:20.865Z,11.73
2023-05-05T20:22:48.648Z,10.55
2023-05-05T20:25:18.559Z,11.48
2023-05-05T20:27:48.188Z,9.95
2023-05-05T20:30:15.149Z,10.02
2023-05-05T20:32:42.147Z,10.07
2023-05-05T20:35:09.778Z,9.10
2023-05-05T20:37:36.574Z,10.40
2023-05-05T20:40:04.027Z,8.98
2023-05-05T20:42:30.917Z,8.88
2023-05-05T20:44:57.844Z,7.68
2023-05-05T20:47:24.975Z,8.48
2023-05-05T20:49:52.686Z,7.35
2023-05-05T20:52:20.171Z,6.80
2023-05-05T20:54:46.993Z,6.25
2023-05-05T20:57:13.955Z,6.18
2023-05-05T20:59:40.828Z,6.35
2023-05-05T21:02:08.328Z,6.18
2023-05-05T21:04:35.525Z,6.87
2023-05-05T21:07:03.054Z,6.87
2023-05-05T21:09:29.916Z,5.95
2023-05-05T21:11:56.822Z,6.20
2023-05-05T21:14:23.988Z,6.00
2023-05-05T21:16:50.902Z,6.50
2023-05-05T21:19:17.771Z,7.12
2023-05-05T21:21:44.590Z,5.65
2023-05-05T21:24:13.159Z,6.95
2023-05-05T21:26:44.376Z,6.03
2023-05-05T21:29:11.847Z,7.25
2023-05-05T21:31:38.752Z,6.55
2023-05-05T21:34:05.619Z,5.53
2023-05-05T21:36:34.088Z,6.32
2023-05-05T21:39:01.267Z,6.07
2023-05-05T21:41:28.165Z,6.60
2023-05-05T21:43:55.129Z,6.22
2023-05-05T21:46:22.089Z,6.28
2023-05-05T21:48:49.013Z,5.00
2023-05-05T21:51:15.996Z,6.03
2023-05-05T21:53:42.922Z,4.93
2023-05-05T21:56:09.899Z,5.80
2023-05-05T21:58:36.811Z,5.35
2023-05-05T22:01:03.800Z,5.65
2023-05-05T22:03:30.764Z,4.97
2023-05-05T22:05:57.641Z,4.72
2023-05-05T22:08:24.547Z,5.87
2023-05-05T22:10:51.651Z,4.75
2023-05-05T22:13:18.613Z,5.62
2023-05-05T22:15:47.480Z,6.37
2023-05-05T22:18:15.557Z,7.07
2023-05-05T22:20:42.512Z,6.55
2023-05-05T22:23:09.570Z,6.25
2023-05-05T22:25:36.484Z,5.37
2023-05-05T22:28:03.506Z,5.20
2023-05-05T22:30:30.417Z,5.30
2023-05-05T22:32:57.405Z,5.12
2023-05-05T22:35:24.555Z,5.53
2023-05-05T22:37:51.387Z,4.30
2023-05-05T22:40:18.236Z,4.40
2023-05-05T22:42:45.077Z,4.60
2023-05-05T22:45:12.168Z,4.50
2023-05-05T22:47:39.723Z,4.15
2023-05-05T22:50:07.953Z,3.42
2023-05-05T22:52:34.832Z,4.50
2023-05-05T22:55:01.910Z,4.90
2023-05-05T22:57:28.801Z,4.37
2023-05-05T22:59:55.874Z,5.05
2023-05-05T23:02:22.876Z,4.55
2023-05-05T23:04:50.011Z,4.97
2023-05-05T23:07:16.931Z,5.22
2023-05-05T23:09:43.736Z,4.97
2023-05-05T23:12:10.956Z,4.45
2023-05-05T23:14:38.450Z,4.32
2023-05-05T23:17:05.471Z,4.50
2023-05-05T23:19:32.801Z,5.55
2023-05-05T23:22:00.267Z,4.55
2023-05-05T23:24:28.387Z,4.55
2023-05-05T23:26:57.052Z,4.30
2023-05-05T23:29:23.876Z,5.03
2023-05-05T23:31:50.827Z,6.28
2023-05-05T23:34:17.603Z,5.10
2023-05-05T23:36:44.409Z,5.68
2023-05-05T23:39:11.610Z,5.50
2023-05-05T23:41:38.494Z,5.47
2023-05-05T23:44:05.414Z,4.55
2023-05-05T23:46:32.647Z,4.12
2023-05-05T23:48:59.560Z,5.28
2023-05-05T23:51:27.408Z,5.18
2023-05-05T23:53:57.388Z,5.75
2023-05-05T23:56:24.685Z,5.68
2023-05-05T23:58:52.692Z,5.68
